PWSweather.com
Personal Weather Stations
Station Observations
COONRAPIDS
Minneapolis, MN 55433

Minneapolis, MN 55433

Lat: 45.187721, Lon: -93.36828

Elevation: 898

Station Type: Davis Vantage Pro 2

High Low Average
Temperature 71.5°F21.9°C 55.3°F12.9°C 63.7°F17.6°C
Dew Point 49.4°F9.7°C 41.4°F5.2°C 45.7°F7.6°C
Winds 8.1 mph 13.0 kmh Calm Calm 2.0 mph SW3.2 kmh SW
Wind Gusts 16.1 mph25.9 kmh -- 4.0 mph6.4 kmh
Humidity 64% 36% 53%
Pressure 29.76 in1007.8 mb 29.55 in1000.7 mb -
Precipitation 0.00 in0.0 mm - -
Hour Temp Dew Point Humidity Winds Wind Gusts Pressure Precip Precip Rate Daily Precip Total
12:00 AM 71.2°F21.8°C 42.9°F6.1°C 36% 3.5 mph S5.6 kmh S 4.6 mph7.4 kmh 29.58 in1001.7 mb - 0.00 in0.0 mm 0.00 in0.0 mm
12:10 AM 71.2°F21.8°C 42.9°F6.1°C 36% 3.5 mph S5.6 kmh S 6.9 mph11.1 kmh 29.58 in1001.7 mb - 0.00 in0.0 mm 0.00 in0.0 mm
12:20 AM 71.1°F21.7°C 42.8°F6.0°C 36% 5.8 mph S9.3 kmh S 11.5 mph18.5 kmh 29.57 in1001.4 mb - 0.00 in0.0 mm 0.00 in0.0 mm
12:30 AM 71.4°F21.9°C 43.0°F6.1°C 36% 8.1 mph S13.0 kmh S 10.4 mph16.7 kmh 29.58 in1001.7 mb - 0.00 in0.0 mm 0.00 in0.0 mm
12:40 AM 71.4°F21.9°C 43.1°F6.2°C 36% 5.8 mph SSW9.3 kmh SSW 6.9 mph11.1 kmh 29.57 in1001.4 mb - 0.00 in0.0 mm 0.00 in0.0 mm
12:50 AM 71.5°F21.9°C 43.1°F6.2°C 36% 5.8 mph S9.3 kmh S 9.2 mph14.8 kmh 29.57 in1001.4 mb - 0.00 in0.0 mm 0.00 in0.0 mm
01:00 AM 71.1°F21.7°C 43.5°F6.4°C 37% 5.8 mph S9.3 kmh S 5.8 mph9.3 kmh 29.57 in1001.4 mb - 0.00 in0.0 mm 0.00 in0.0 mm
01:10 AM 70.7°F21.5°C 43.8°F6.6°C 38% 6.9 mph SSW11.1 kmh SSW 11.5 mph18.5 kmh 29.57 in1001.4 mb - 0.00 in0.0 mm 0.00 in0.0 mm
01:20 AM 70.4°F21.3°C 43.6°F6.4°C 38% 6.9 mph SSW11.1 kmh SSW 16.1 mph25.9 kmh 29.57 in1001.4 mb - 0.00 in0.0 mm 0.00 in0.0 mm
01:30 AM 69.9°F21.1°C 44.4°F6.9°C 40% 5.8 mph SSW9.3 kmh SSW 11.5 mph18.5 kmh 29.57 in1001.4 mb - 0.00 in0.0 mm 0.00 in0.0 mm
01:40 AM 69.1°F20.6°C 44.4°F6.9°C 41% 4.6 mph SSW7.4 kmh SSW 5.8 mph9.3 kmh 29.57 in1001.4 mb - 0.00 in0.0 mm 0.00 in0.0 mm
01:50 AM 68.7°F20.4°C 44.7°F7.1°C 42% 5.8 mph SSW9.3 kmh SSW 8.1 mph13.0 kmh 29.57 in1001.4 mb - 0.00 in0.0 mm 0.00 in0.0 mm
02:00 AM 68.3°F20.2°C 44.9°F7.2°C 43% 4.6 mph SSW7.4 kmh SSW 9.2 mph14.8 kmh 29.57 in1001.4 mb - 0.00 in0.0 mm 0.00 in0.0 mm
02:10 AM 67.9°F19.9°C 45.2°F7.3°C 44% Calm Calm 3.5 mph5.6 kmh 29.56 in1001.0 mb - 0.00 in0.0 mm 0.00 in0.0 mm
02:20 AM 67.3°F19.6°C 45.3°F7.4°C 45% Calm Calm 2.3 mph3.7 kmh 29.55 in1000.7 mb - 0.00 in0.0 mm 0.00 in0.0 mm
02:30 AM 66.8°F19.3°C 45.4°F7.4°C 46% Calm Calm -- 29.57 in1001.4 mb - 0.00 in0.0 mm 0.00 in0.0 mm
02:40 AM 66.9°F19.4°C 45.5°F7.5°C 46% 2.3 mph S3.7 kmh S 3.5 mph5.6 kmh 29.57 in1001.4 mb - 0.00 in0.0 mm 0.00 in0.0 mm
02:50 AM 66.7°F19.3°C 45.2°F7.3°C 46% Calm Calm -- 29.58 in1001.7 mb - 0.00 in0.0 mm 0.00 in0.0 mm
03:00 AM 66.2°F19.0°C 45.4°F7.4°C 47% Calm Calm 4.6 mph7.4 kmh 29.57 in1001.4 mb - 0.00 in0.0 mm 0.00 in0.0 mm
03:10 AM 65.9°F18.8°C 45.6°F7.6°C 48% 3.5 mph SSW5.6 kmh SSW 3.5 mph5.6 kmh 29.57 in1001.4 mb - 0.00 in0.0 mm 0.00 in0.0 mm
03:20 AM 65.3°F18.5°C 45.7°F7.6°C 49% 2.3 mph S3.7 kmh S 6.9 mph11.1 kmh 29.57 in1001.4 mb - 0.00 in0.0 mm 0.00 in0.0 mm
03:30 AM 64.7°F18.2°C 46.2°F7.9°C 51% Calm Calm 1.2 mph1.9 kmh 29.57 in1001.4 mb - 0.00 in0.0 mm 0.00 in0.0 mm
03:40 AM 64.2°F17.9°C 46.2°F7.9°C 52% Calm Calm 1.2 mph1.9 kmh 29.57 in1001.4 mb - 0.00 in0.0 mm 0.00 in0.0 mm
03:50 AM 64.0°F17.8°C 46.5°F8.1°C 53% Calm Calm -- 29.57 in1001.4 mb - 0.00 in0.0 mm 0.00 in0.0 mm
04:00 AM 63.6°F17.6°C 46.7°F8.2°C 54% Calm Calm -- 29.56 in1001.0 mb - 0.00 in0.0 mm 0.00 in0.0 mm
04:10 AM 63.2°F17.3°C 46.8°F8.2°C 55% Calm Calm -- 29.58 in1001.7 mb - 0.00 in0.0 mm 0.00 in0.0 mm
04:20 AM 63.3°F17.4°C 46.9°F8.3°C 55% Calm Calm 4.6 mph7.4 kmh 29.60 in1002.4 mb - 0.00 in0.0 mm 0.00 in0.0 mm
04:30 AM 63.7°F17.6°C 47.2°F8.4°C 55% 4.6 mph WSW7.4 kmh WSW 9.2 mph14.8 kmh 29.61 in1002.7 mb - 0.00 in0.0 mm 0.00 in0.0 mm
04:40 AM 63.4°F17.4°C 47.4°F8.6°C 56% 1.2 mph WSW1.9 kmh WSW -- 29.60 in1002.4 mb - 0.00 in0.0 mm 0.00 in0.0 mm
04:50 AM 62.8°F17.1°C 47.8°F8.8°C 58% Calm Calm 3.5 mph5.6 kmh 29.60 in1002.4 mb - 0.00 in0.0 mm 0.00 in0.0 mm
05:00 AM 62.4°F16.9°C 47.9°F8.8°C 59% 1.2 mph WSW1.9 kmh WSW 3.5 mph5.6 kmh 29.62 in1003.0 mb - 0.00 in0.0 mm 0.00 in0.0 mm
05:10 AM 62.2°F16.8°C 48.1°F8.9°C 60% Calm Calm -- 29.62 in1003.0 mb - 0.00 in0.0 mm 0.00 in0.0 mm
05:20 AM 61.9°F16.6°C 48.3°F9.1°C 61% 1.2 mph SW1.9 kmh SW 4.6 mph7.4 kmh 29.64 in1003.7 mb - 0.00 in0.0 mm 0.00 in0.0 mm
05:30 AM 61.9°F16.6°C 48.3°F9.1°C 61% 1.2 mph SSW1.9 kmh SSW 3.5 mph5.6 kmh 29.64 in1003.7 mb - 0.00 in0.0 mm 0.00 in0.0 mm
05:40 AM 62.1°F16.7°C 48.5°F9.2°C 61% Calm Calm -- 29.64 in1003.7 mb - 0.00 in0.0 mm 0.00 in0.0 mm
05:50 AM 62.0°F16.7°C 48.8°F9.3°C 62% 2.3 mph S3.7 kmh S 3.5 mph5.6 kmh 29.66 in1004.4 mb - 0.00 in0.0 mm 0.00 in0.0 mm
06:00 AM 61.9°F16.6°C 48.7°F9.3°C 62% 1.2 mph SW1.9 kmh SW 2.3 mph3.7 kmh 29.66 in1004.4 mb - 0.00 in0.0 mm 0.00 in0.0 mm
06:10 AM 61.7°F16.5°C 48.5°F9.2°C 62% 2.3 mph SW3.7 kmh SW 4.6 mph7.4 kmh 29.66 in1004.4 mb - 0.00 in0.0 mm 0.00 in0.0 mm
06:20 AM 61.5°F16.4°C 48.4°F9.1°C 62% 5.8 mph WSW9.3 kmh WSW 8.1 mph13.0 kmh 29.67 in1004.7 mb - 0.00 in0.0 mm 0.00 in0.0 mm
06:30 AM 61.3°F16.3°C 48.6°F9.2°C 63% 1.2 mph WSW1.9 kmh WSW 5.8 mph9.3 kmh 29.66 in1004.4 mb - 0.00 in0.0 mm 0.00 in0.0 mm
06:40 AM 61.2°F16.2°C 48.5°F9.2°C 63% 1.2 mph SW1.9 kmh SW 3.5 mph5.6 kmh 29.66 in1004.4 mb - 0.00 in0.0 mm 0.00 in0.0 mm
06:50 AM 61.2°F16.2°C 48.5°F9.2°C 63% 4.6 mph WSW7.4 kmh WSW 8.1 mph13.0 kmh 29.66 in1004.4 mb - 0.00 in0.0 mm 0.00 in0.0 mm
07:00 AM 61.1°F16.2°C 48.4°F9.1°C 63% 3.5 mph SW5.6 kmh SW 6.9 mph11.1 kmh 29.66 in1004.4 mb - 0.00 in0.0 mm 0.00 in0.0 mm
07:10 AM 61.0°F16.1°C 48.3°F9.1°C 63% Calm Calm -- 29.66 in1004.4 mb - 0.00 in0.0 mm 0.00 in0.0 mm
07:20 AM 61.1°F16.2°C 48.8°F9.3°C 64% 3.5 mph SW5.6 kmh SW 6.9 mph11.1 kmh 29.66 in1004.4 mb - 0.00 in0.0 mm 0.00 in0.0 mm
07:30 AM 61.0°F16.1°C 48.7°F9.3°C 64% 2.3 mph SW3.7 kmh SW 3.5 mph5.6 kmh 29.66 in1004.4 mb - 0.00 in0.0 mm 0.00 in0.0 mm
07:40 AM 61.1°F16.2°C 48.8°F9.3°C 64% 3.5 mph SSW5.6 kmh SSW 5.8 mph9.3 kmh 29.66 in1004.4 mb - 0.00 in0.0 mm 0.00 in0.0 mm
07:50 AM 61.5°F16.4°C 49.2°F9.6°C 64% 1.2 mph SSW1.9 kmh SSW 3.5 mph5.6 kmh 29.66 in1004.4 mb - 0.00 in0.0 mm 0.00 in0.0 mm
08:00 AM 61.7°F16.5°C 49.0°F9.4°C 63% 2.3 mph SW3.7 kmh SW 10.4 mph16.7 kmh 29.66 in1004.4 mb - 0.00 in0.0 mm 0.00 in0.0 mm
08:10 AM 62.1°F16.7°C 49.3°F9.6°C 63% 2.3 mph SW3.7 kmh SW 6.9 mph11.1 kmh 29.66 in1004.4 mb - 0.00 in0.0 mm 0.00 in0.0 mm
08:20 AM 62.6°F17.0°C 49.4°F9.7°C 62% 2.3 mph WSW3.7 kmh WSW 6.9 mph11.1 kmh 29.65 in1004.1 mb - 0.00 in0.0 mm 0.00 in0.0 mm
08:30 AM 62.7°F17.1°C 49.0°F9.4°C 61% 4.6 mph WSW7.4 kmh WSW 10.4 mph16.7 kmh 29.66 in1004.4 mb - 0.00 in0.0 mm 0.00 in0.0 mm
08:40 AM 63.1°F17.3°C 48.9°F9.4°C 60% 3.5 mph SW5.6 kmh SW 9.2 mph14.8 kmh 29.66 in1004.4 mb - 0.00 in0.0 mm 0.00 in0.0 mm
08:50 AM 63.4°F17.4°C 48.8°F9.3°C 59% 5.8 mph WSW9.3 kmh WSW 10.4 mph16.7 kmh 29.66 in1004.4 mb - 0.00 in0.0 mm 0.00 in0.0 mm
09:00 AM 63.4°F17.4°C 48.8°F9.3°C 59% 5.8 mph SW9.3 kmh SW 11.5 mph18.5 kmh 29.67 in1004.7 mb - 0.00 in0.0 mm 0.00 in0.0 mm
09:10 AM 62.9°F17.2°C 48.3°F9.1°C 59% 4.6 mph WSW7.4 kmh WSW 10.4 mph16.7 kmh 29.68 in1005.1 mb - 0.00 in0.0 mm 0.00 in0.0 mm
09:20 AM 61.5°F16.4°C 47.9°F8.8°C 61% 4.6 mph SW7.4 kmh SW 8.1 mph13.0 kmh 29.68 in1005.1 mb - 0.00 in0.0 mm 0.00 in0.0 mm
09:30 AM 61.2°F16.2°C 47.6°F8.7°C 61% 6.9 mph WSW11.1 kmh WSW 11.5 mph18.5 kmh 29.69 in1005.4 mb - 0.00 in0.0 mm 0.00 in0.0 mm
09:40 AM 60.8°F16.0°C 47.2°F8.4°C 61% 5.8 mph WSW9.3 kmh WSW 15.0 mph24.1 kmh 29.70 in1005.8 mb - 0.00 in0.0 mm 0.00 in0.0 mm
09:50 AM 59.9°F15.5°C 46.4°F8.0°C 61% 3.5 mph SW5.6 kmh SW 6.9 mph11.1 kmh 29.70 in1005.8 mb - 0.00 in0.0 mm 0.00 in0.0 mm
10:00 AM 59.7°F15.4°C 45.4°F7.4°C 59% 5.8 mph WSW9.3 kmh WSW 11.5 mph18.5 kmh 29.70 in1005.8 mb - 0.00 in0.0 mm 0.00 in0.0 mm
10:10 AM 59.3°F15.2°C 45.0°F7.2°C 59% 4.6 mph W7.4 kmh W 8.1 mph13.0 kmh 29.71 in1006.1 mb - 0.00 in0.0 mm 0.00 in0.0 mm
10:20 AM 59.4°F15.2°C 45.1°F7.3°C 59% 2.3 mph WNW3.7 kmh WNW 10.4 mph16.7 kmh 29.71 in1006.1 mb - 0.00 in0.0 mm 0.00 in0.0 mm
10:30 AM 59.5°F15.3°C 45.2°F7.3°C 59% 2.3 mph SW3.7 kmh SW 3.5 mph5.6 kmh 29.72 in1006.4 mb - 0.00 in0.0 mm 0.00 in0.0 mm
10:40 AM 59.6°F15.3°C 44.8°F7.1°C 58% 4.6 mph WSW7.4 kmh WSW 9.2 mph14.8 kmh 29.72 in1006.4 mb - 0.00 in0.0 mm 0.00 in0.0 mm
10:50 AM 59.7°F15.4°C 44.4°F6.9°C 57% 2.3 mph SW3.7 kmh SW 3.5 mph5.6 kmh 29.73 in1006.8 mb - 0.00 in0.0 mm 0.00 in0.0 mm
11:00 AM 59.8°F15.4°C 44.5°F6.9°C 57% 2.3 mph SW3.7 kmh SW 3.5 mph5.6 kmh 29.73 in1006.8 mb - 0.00 in0.0 mm 0.00 in0.0 mm
11:10 AM 60.0°F15.6°C 44.3°F6.8°C 56% 2.3 mph SSW3.7 kmh SSW 5.8 mph9.3 kmh 29.73 in1006.8 mb - 0.00 in0.0 mm 0.00 in0.0 mm
11:20 AM 60.3°F15.7°C 44.1°F6.7°C 55% 3.5 mph SW5.6 kmh SW 4.6 mph7.4 kmh 29.74 in1007.1 mb - 0.00 in0.0 mm 0.00 in0.0 mm
11:30 AM 60.4°F15.8°C 44.2°F6.8°C 55% Calm Calm 3.5 mph5.6 kmh 29.74 in1007.1 mb - 0.00 in0.0 mm 0.00 in0.0 mm
11:40 AM 61.0°F16.1°C 44.2°F6.8°C 54% 2.3 mph WSW3.7 kmh WSW 3.5 mph5.6 kmh 29.73 in1006.8 mb - 0.00 in0.0 mm 0.00 in0.0 mm
11:50 AM 62.2°F16.8°C 44.9°F7.2°C 53% 2.3 mph W3.7 kmh W 3.5 mph5.6 kmh 29.74 in1007.1 mb - 0.00 in0.0 mm 0.00 in0.0 mm
12:00 PM 62.7°F17.1°C 43.8°F6.6°C 50% 2.3 mph SW3.7 kmh SW 3.5 mph5.6 kmh 29.74 in1007.1 mb - 0.00 in0.0 mm 0.00 in0.0 mm
12:10 PM 62.3°F16.8°C 44.4°F6.9°C 52% 3.5 mph SSW5.6 kmh SSW 4.6 mph7.4 kmh 29.74 in1007.1 mb - 0.00 in0.0 mm 0.00 in0.0 mm
12:20 PM 63.1°F17.3°C 45.2°F7.3°C 52% 3.5 mph S5.6 kmh S 6.9 mph11.1 kmh 29.73 in1006.8 mb - 0.00 in0.0 mm 0.00 in0.0 mm
12:30 PM 63.5°F17.5°C 43.4°F6.3°C 48% 1.2 mph S1.9 kmh S 2.3 mph3.7 kmh 29.74 in1007.1 mb - 0.00 in0.0 mm 0.00 in0.0 mm
12:40 PM 63.1°F17.3°C 44.2°F6.8°C 50% 2.3 mph SW3.7 kmh SW 3.5 mph5.6 kmh 29.74 in1007.1 mb - 0.00 in0.0 mm 0.00 in0.0 mm
12:50 PM 63.8°F17.7°C 45.3°F7.4°C 51% 1.2 mph SW1.9 kmh SW 5.8 mph9.3 kmh 29.74 in1007.1 mb - 0.00 in0.0 mm 0.00 in0.0 mm
01:00 PM 63.9°F17.7°C 44.4°F6.9°C 49% 3.5 mph W5.6 kmh W 4.6 mph7.4 kmh 29.74 in1007.1 mb - 0.00 in0.0 mm 0.00 in0.0 mm
01:10 PM 64.0°F17.8°C 44.4°F6.9°C 49% 4.6 mph W7.4 kmh W 6.9 mph11.1 kmh 29.74 in1007.1 mb - 0.00 in0.0 mm 0.00 in0.0 mm
01:20 PM 64.0°F17.8°C 45.0°F7.2°C 50% Calm Calm -- 29.73 in1006.8 mb - 0.00 in0.0 mm 0.00 in0.0 mm
01:30 PM 64.5°F18.1°C 44.4°F6.9°C 48% 2.3 mph SW3.7 kmh SW 3.5 mph5.6 kmh 29.73 in1006.8 mb - 0.00 in0.0 mm 0.00 in0.0 mm
01:40 PM 65.3°F18.5°C 45.1°F7.3°C 48% 2.3 mph NW3.7 kmh NW 3.5 mph5.6 kmh 29.73 in1006.8 mb - 0.00 in0.0 mm 0.00 in0.0 mm
01:50 PM 65.7°F18.7°C 45.5°F7.5°C 48% 2.3 mph NW3.7 kmh NW 3.5 mph5.6 kmh 29.73 in1006.8 mb - 0.00 in0.0 mm 0.00 in0.0 mm
02:00 PM 65.8°F18.8°C 44.4°F6.9°C 46% 1.2 mph WNW1.9 kmh WNW 2.3 mph3.7 kmh 29.73 in1006.8 mb - 0.00 in0.0 mm 0.00 in0.0 mm
02:10 PM 67.0°F19.4°C 45.0°F7.2°C 45% 1.2 mph SW1.9 kmh SW 1.2 mph1.9 kmh 29.73 in1006.8 mb - 0.00 in0.0 mm 0.00 in0.0 mm
02:20 PM 67.6°F19.8°C 45.5°F7.5°C 45% Calm Calm 2.3 mph3.7 kmh 29.73 in1006.8 mb - 0.00 in0.0 mm 0.00 in0.0 mm
02:30 PM 67.6°F19.8°C 44.9°F7.2°C 44% Calm Calm -- 29.72 in1006.4 mb - 0.00 in0.0 mm 0.00 in0.0 mm
02:40 PM 67.4°F19.7°C 44.7°F7.1°C 44% 2.3 mph WNW3.7 kmh WNW 2.3 mph3.7 kmh 29.73 in1006.8 mb - 0.00 in0.0 mm 0.00 in0.0 mm
02:50 PM 68.1°F20.1°C 45.9°F7.7°C 45% 2.3 mph W3.7 kmh W 4.6 mph7.4 kmh 29.73 in1006.8 mb - 0.00 in0.0 mm 0.00 in0.0 mm
03:00 PM 68.5°F20.3°C 45.1°F7.3°C 43% Calm Calm 1.2 mph1.9 kmh 29.73 in1006.8 mb - 0.00 in0.0 mm 0.00 in0.0 mm
03:10 PM 68.3°F20.2°C 44.9°F7.2°C 43% 2.3 mph WNW3.7 kmh WNW 4.6 mph7.4 kmh 29.73 in1006.8 mb - 0.00 in0.0 mm 0.00 in0.0 mm
03:20 PM 67.6°F19.8°C 45.5°F7.5°C 45% Calm Calm 3.5 mph5.6 kmh 29.73 in1006.8 mb - 0.00 in0.0 mm 0.00 in0.0 mm
03:30 PM 66.9°F19.4°C 45.4°F7.4°C 46% 2.3 mph SW3.7 kmh SW 2.3 mph3.7 kmh 29.74 in1007.1 mb - 0.00 in0.0 mm 0.00 in0.0 mm
03:40 PM 66.3°F19.1°C 45.5°F7.5°C 47% 2.3 mph W3.7 kmh W 5.8 mph9.3 kmh 29.74 in1007.1 mb - 0.00 in0.0 mm 0.00 in0.0 mm
03:50 PM 65.8°F18.8°C 45.6°F7.6°C 48% 1.2 mph NW1.9 kmh NW 5.8 mph9.3 kmh 29.74 in1007.1 mb - 0.00 in0.0 mm 0.00 in0.0 mm
04:00 PM 65.3°F18.5°C 45.1°F7.3°C 48% 2.3 mph W3.7 kmh W 6.9 mph11.1 kmh 29.74 in1007.1 mb - 0.00 in0.0 mm 0.00 in0.0 mm
04:10 PM 65.3°F18.5°C 45.6°F7.6°C 49% Calm Calm -- 29.74 in1007.1 mb - 0.00 in0.0 mm 0.00 in0.0 mm
04:20 PM 65.5°F18.6°C 45.3°F7.4°C 48% 3.5 mph WNW5.6 kmh WNW 4.6 mph7.4 kmh 29.74 in1007.1 mb - 0.00 in0.0 mm 0.00 in0.0 mm
04:30 PM 65.4°F18.6°C 45.8°F7.7°C 49% Calm Calm 2.3 mph3.7 kmh 29.73 in1006.8 mb - 0.00 in0.0 mm 0.00 in0.0 mm
04:40 PM 66.0°F18.9°C 46.3°F7.9°C 49% Calm Calm 3.5 mph5.6 kmh 29.73 in1006.8 mb - 0.00 in0.0 mm 0.00 in0.0 mm
04:50 PM 66.4°F19.1°C 46.7°F8.2°C 49% Calm Calm 2.3 mph3.7 kmh 29.73 in1006.8 mb - 0.00 in0.0 mm 0.00 in0.0 mm
05:00 PM 66.3°F19.1°C 45.4°F7.4°C 47% 1.2 mph WNW1.9 kmh WNW 3.5 mph5.6 kmh 29.73 in1006.8 mb - 0.00 in0.0 mm 0.00 in0.0 mm
05:10 PM 66.1°F18.9°C 45.8°F7.7°C 48% 1.2 mph WNW1.9 kmh WNW 1.2 mph1.9 kmh 29.73 in1006.8 mb - 0.00 in0.0 mm 0.00 in0.0 mm
05:20 PM 65.7°F18.7°C 45.5°F7.5°C 48% Calm Calm -- 29.73 in1006.8 mb - 0.00 in0.0 mm 0.00 in0.0 mm
05:30 PM 65.4°F18.6°C 45.2°F7.3°C 48% 2.3 mph NW3.7 kmh NW 3.5 mph5.6 kmh 29.72 in1006.4 mb - 0.00 in0.0 mm 0.00 in0.0 mm
05:40 PM 65.6°F18.7°C 45.4°F7.4°C 48% Calm Calm -- 29.71 in1006.1 mb - 0.00 in0.0 mm 0.00 in0.0 mm
05:50 PM 66.1°F18.9°C 45.2°F7.3°C 47% 1.2 mph WNW1.9 kmh WNW 2.3 mph3.7 kmh 29.71 in1006.1 mb - 0.00 in0.0 mm 0.00 in0.0 mm
06:00 PM 66.8°F19.3°C 45.3°F7.4°C 46% Calm Calm -- 29.70 in1005.8 mb - 0.00 in0.0 mm 0.00 in0.0 mm
06:10 PM 66.3°F19.1°C 45.5°F7.5°C 47% Calm Calm -- 29.71 in1006.1 mb - 0.00 in0.0 mm 0.00 in0.0 mm
06:20 PM 65.7°F18.7°C 44.9°F7.2°C 47% Calm Calm -- 29.71 in1006.1 mb - 0.00 in0.0 mm 0.00 in0.0 mm
06:30 PM 65.6°F18.7°C 45.9°F7.7°C 49% Calm Calm -- 29.72 in1006.4 mb - 0.00 in0.0 mm 0.00 in0.0 mm
06:40 PM 65.4°F18.6°C 46.3°F7.9°C 50% Calm Calm -- 29.72 in1006.4 mb - 0.00 in0.0 mm 0.00 in0.0 mm
06:50 PM 65.0°F18.3°C 45.9°F7.7°C 50% Calm Calm -- 29.71 in1006.1 mb - 0.00 in0.0 mm 0.00 in0.0 mm
07:00 PM 64.7°F18.2°C 45.6°F7.6°C 50% Calm Calm -- 29.71 in1006.1 mb - 0.00 in0.0 mm 0.00 in0.0 mm
07:10 PM 64.5°F18.1°C 45.4°F7.4°C 50% Calm Calm -- 29.72 in1006.4 mb - 0.00 in0.0 mm 0.00 in0.0 mm
07:20 PM 64.1°F17.8°C 45.6°F7.6°C 51% Calm Calm -- 29.71 in1006.1 mb - 0.00 in0.0 mm 0.00 in0.0 mm
07:30 PM 63.6°F17.6°C 45.2°F7.3°C 51% Calm Calm -- 29.71 in1006.1 mb - 0.00 in0.0 mm 0.00 in0.0 mm
07:40 PM 63.2°F17.3°C 45.8°F7.7°C 53% Calm Calm -- 29.71 in1006.1 mb - 0.00 in0.0 mm 0.00 in0.0 mm
07:50 PM 62.9°F17.2°C 45.9°F7.7°C 54% Calm Calm -- 29.71 in1006.1 mb - 0.00 in0.0 mm 0.00 in0.0 mm
08:00 PM 62.6°F17.0°C 45.7°F7.6°C 54% Calm Calm -- 29.72 in1006.4 mb - 0.00 in0.0 mm 0.00 in0.0 mm
08:10 PM 62.5°F16.9°C 45.6°F7.6°C 54% Calm Calm -- 29.73 in1006.8 mb - 0.00 in0.0 mm 0.00 in0.0 mm
08:20 PM 62.5°F16.9°C 46.1°F7.8°C 55% Calm Calm -- 29.72 in1006.4 mb - 0.00 in0.0 mm 0.00 in0.0 mm
08:30 PM 62.5°F16.9°C 46.1°F7.8°C 55% Calm Calm -- 29.73 in1006.8 mb - 0.00 in0.0 mm 0.00 in0.0 mm
08:40 PM 62.3°F16.8°C 46.4°F8.0°C 56% Calm Calm -- 29.72 in1006.4 mb - 0.00 in0.0 mm 0.00 in0.0 mm
08:50 PM 62.0°F16.7°C 46.1°F7.8°C 56% Calm Calm -- 29.72 in1006.4 mb - 0.00 in0.0 mm 0.00 in0.0 mm
09:00 PM 61.8°F16.6°C 46.4°F8.0°C 57% Calm Calm -- 29.73 in1006.8 mb - 0.00 in0.0 mm 0.00 in0.0 mm
09:10 PM 61.9°F16.6°C 46.5°F8.1°C 57% Calm Calm 1.2 mph1.9 kmh 29.73 in1006.8 mb - 0.00 in0.0 mm 0.00 in0.0 mm
09:20 PM 62.0°F16.7°C 47.1°F8.4°C 58% Calm Calm -- 29.73 in1006.8 mb - 0.00 in0.0 mm 0.00 in0.0 mm
09:30 PM 61.8°F16.6°C 46.9°F8.3°C 58% Calm Calm -- 29.73 in1006.8 mb - 0.00 in0.0 mm 0.00 in0.0 mm
09:40 PM 61.4°F16.3°C 46.5°F8.1°C 58% Calm Calm 3.5 mph5.6 kmh 29.73 in1006.8 mb - 0.00 in0.0 mm 0.00 in0.0 mm
09:50 PM 61.1°F16.2°C 46.2°F7.9°C 58% Calm Calm 1.2 mph1.9 kmh 29.74 in1007.1 mb - 0.00 in0.0 mm 0.00 in0.0 mm
10:00 PM 60.6°F15.9°C 45.3°F7.4°C 57% 1.2 mph N1.9 kmh N 2.3 mph3.7 kmh 29.74 in1007.1 mb - 0.00 in0.0 mm 0.00 in0.0 mm
10:10 PM 60.2°F15.7°C 44.9°F7.2°C 57% 1.2 mph N1.9 kmh N 4.6 mph7.4 kmh 29.74 in1007.1 mb - 0.00 in0.0 mm 0.00 in0.0 mm
10:20 PM 59.7°F15.4°C 44.4°F6.9°C 57% Calm Calm 1.2 mph1.9 kmh 29.74 in1007.1 mb - 0.00 in0.0 mm 0.00 in0.0 mm
10:30 PM 59.1°F15.1°C 43.9°F6.6°C 57% 1.2 mph N1.9 kmh N 2.3 mph3.7 kmh 29.74 in1007.1 mb - 0.00 in0.0 mm 0.00 in0.0 mm
10:40 PM 58.4°F14.7°C 42.8°F6.0°C 56% 2.3 mph N3.7 kmh N 3.5 mph5.6 kmh 29.75 in1007.5 mb - 0.00 in0.0 mm 0.00 in0.0 mm
10:50 PM 57.7°F14.3°C 42.1°F5.6°C 56% 2.3 mph N3.7 kmh N 3.5 mph5.6 kmh 29.75 in1007.5 mb - 0.00 in0.0 mm 0.00 in0.0 mm
11:00 PM 57.3°F14.1°C 41.8°F5.4°C 56% 1.2 mph NW1.9 kmh NW 2.3 mph3.7 kmh 29.76 in1007.8 mb - 0.00 in0.0 mm 0.00 in0.0 mm
11:10 PM 57.0°F13.9°C 41.4°F5.2°C 56% Calm Calm -- 29.75 in1007.5 mb - 0.00 in0.0 mm 0.00 in0.0 mm
11:20 PM 56.6°F13.7°C 41.5°F5.3°C 57% Calm Calm 1.2 mph1.9 kmh 29.75 in1007.5 mb - 0.00 in0.0 mm 0.00 in0.0 mm
11:30 PM 56.2°F13.4°C 42.1°F5.6°C 59% Calm Calm -- 29.74 in1007.1 mb - 0.00 in0.0 mm 0.00 in0.0 mm
11:40 PM 55.7°F13.2°C 42.0°F5.6°C 60% 2.3 mph N3.7 kmh N 3.5 mph5.6 kmh 29.73 in1006.8 mb - 0.00 in0.0 mm 0.00 in0.0 mm
11:50 PM 55.3°F12.9°C 41.6°F5.3°C 60% 2.3 mph N3.7 kmh N 3.5 mph5.6 kmh 29.74 in1007.1 mb - 0.00 in0.0 mm 0.00 in0.0 mm